sensor_id;sensor_type;location;lat;lon;timestamp;P1;durP1;ratioP1;P2;durP2;ratioP2
11431;SDS011;5772;50.940;6.782;2023-03-18T00:00:28;26.63;;;25.43;;
11431;SDS011;5772;50.940;6.782;2023-03-18T00:02:54;28.67;;;26.97;;
11431;SDS011;5772;50.940;6.782;2023-03-18T00:05:19;25.90;;;24.50;;
11431;SDS011;5772;50.940;6.782;2023-03-18T00:07:45;25.30;;;24.00;;
11431;SDS011;5772;50.940;6.782;2023-03-18T00:10:10;25.23;;;24.13;;
11431;SDS011;5772;50.940;6.782;2023-03-18T00:12:37;26.73;;;25.40;;
11431;SDS011;5772;50.940;6.782;2023-03-18T00:15:03;25.33;;;23.93;;
11431;SDS011;5772;50.940;6.782;2023-03-18T00:17:29;25.07;;;23.80;;
11431;SDS011;5772;50.940;6.782;2023-03-18T00:19:55;25.07;;;23.87;;
11431;SDS011;5772;50.940;6.782;2023-03-18T00:22:20;25.33;;;23.83;;
11431;SDS011;5772;50.940;6.782;2023-03-18T00:24:45;25.63;;;24.17;;
11431;SDS011;5772;50.940;6.782;2023-03-18T00:27:11;26.63;;;25.17;;
11431;SDS011;5772;50.940;6.782;2023-03-18T00:29:38;25.90;;;24.77;;
11431;SDS011;5772;50.940;6.782;2023-03-18T00:32:03;26.53;;;25.13;;
11431;SDS011;5772;50.940;6.782;2023-03-18T00:34:29;24.87;;;23.50;;
11431;SDS011;5772;50.940;6.782;2023-03-18T00:36:54;24.03;;;22.47;;
11431;SDS011;5772;50.940;6.782;2023-03-18T00:39:20;24.87;;;23.57;;
11431;SDS011;5772;50.940;6.782;2023-03-18T00:41:45;26.37;;;24.87;;
11431;SDS011;5772;50.940;6.782;2023-03-18T00:44:10;27.63;;;26.10;;
11431;SDS011;5772;50.940;6.782;2023-03-18T00:46:37;30.43;;;28.93;;
11431;SDS011;5772;50.940;6.782;2023-03-18T00:49:03;29.60;;;28.00;;
11431;SDS011;5772;50.940;6.782;2023-03-18T00:51:30;30.27;;;28.87;;
11431;SDS011;5772;50.940;6.782;2023-03-18T00:53:56;30.77;;;28.90;;
11431;SDS011;5772;50.940;6.782;2023-03-18T00:56:25;29.73;;;28.37;;
11431;SDS011;5772;50.940;6.782;2023-03-18T00:58:51;32.10;;;30.43;;
11431;SDS011;5772;50.940;6.782;2023-03-18T01:01:17;33.53;;;32.00;;
11431;SDS011;5772;50.940;6.782;2023-03-18T01:03:44;34.10;;;32.30;;
11431;SDS011;5772;50.940;6.782;2023-03-18T01:06:11;32.83;;;31.23;;
11431;SDS011;5772;50.940;6.782;2023-03-18T01:08:38;34.37;;;32.27;;
11431;SDS011;5772;50.940;6.782;2023-03-18T01:11:04;36.27;;;34.57;;
11431;SDS011;5772;50.940;6.782;2023-03-18T01:13:30;38.17;;;36.27;;
11431;SDS011;5772;50.940;6.782;2023-03-18T01:15:56;39.43;;;37.33;;
11431;SDS011;5772;50.940;6.782;2023-03-18T01:18:22;41.20;;;38.73;;
11431;SDS011;5772;50.940;6.782;2023-03-18T01:20:49;38.27;;;36.17;;
11431;SDS011;5772;50.940;6.782;2023-03-18T01:23:15;35.13;;;33.63;;
11431;SDS011;5772;50.940;6.782;2023-03-18T01:25:40;39.00;;;36.87;;
11431;SDS011;5772;50.940;6.782;2023-03-18T01:28:06;37.10;;;35.33;;
11431;SDS011;5772;50.940;6.782;2023-03-18T01:30:31;36.50;;;34.73;;
11431;SDS011;5772;50.940;6.782;2023-03-18T01:32:57;36.73;;;34.73;;
11431;SDS011;5772;50.940;6.782;2023-03-18T01:35:22;33.50;;;31.90;;
11431;SDS011;5772;50.940;6.782;2023-03-18T01:37:49;34.30;;;32.50;;
11431;SDS011;5772;50.940;6.782;2023-03-18T01:40:15;37.10;;;35.33;;
11431;SDS011;5772;50.940;6.782;2023-03-18T01:42:41;36.87;;;34.87;;
11431;SDS011;5772;50.940;6.782;2023-03-18T01:45:21;35.10;;;33.50;;
11431;SDS011;5772;50.940;6.782;2023-03-18T01:47:48;36.57;;;34.57;;
11431;SDS011;5772;50.940;6.782;2023-03-18T01:50:14;37.97;;;36.00;;
11431;SDS011;5772;50.940;6.782;2023-03-18T01:52:43;37.23;;;35.53;;
11431;SDS011;5772;50.940;6.782;2023-03-18T01:55:11;36.57;;;34.87;;
11431;SDS011;5772;50.940;6.782;2023-03-18T01:57:39;35.70;;;34.20;;
11431;SDS011;5772;50.940;6.782;2023-03-18T02:00:06;37.00;;;35.20;;
11431;SDS011;5772;50.940;6.782;2023-03-18T02:02:32;37.73;;;36.03;;
11431;SDS011;5772;50.940;6.782;2023-03-18T02:04:58;37.20;;;35.30;;
11431;SDS011;5772;50.940;6.782;2023-03-18T02:07:30;31.50;;;30.10;;
11431;SDS011;5772;50.940;6.782;2023-03-18T02:09:56;27.37;;;25.83;;
11431;SDS011;5772;50.940;6.782;2023-03-18T02:12:25;27.63;;;26.23;;
11431;SDS011;5772;50.940;6.782;2023-03-18T02:14:52;27.80;;;26.57;;
11431;SDS011;5772;50.940;6.782;2023-03-18T02:17:18;31.30;;;30.00;;
11431;SDS011;5772;50.940;6.782;2023-03-18T02:19:48;34.73;;;32.90;;
11431;SDS011;5772;50.940;6.782;2023-03-18T02:22:22;37.93;;;35.90;;
11431;SDS011;5772;50.940;6.782;2023-03-18T02:24:52;38.30;;;36.03;;
11431;SDS011;5772;50.940;6.782;2023-03-18T02:27:22;39.13;;;37.23;;
11431;SDS011;5772;50.940;6.782;2023-03-18T02:29:49;38.40;;;36.23;;
11431;SDS011;5772;50.940;6.782;2023-03-18T02:32:16;38.10;;;36.17;;
11431;SDS011;5772;50.940;6.782;2023-03-18T02:34:43;38.93;;;36.97;;
11431;SDS011;5772;50.940;6.782;2023-03-18T02:37:09;38.87;;;36.87;;
11431;SDS011;5772;50.940;6.782;2023-03-18T02:39:34;38.70;;;36.70;;
11431;SDS011;5772;50.940;6.782;2023-03-18T02:42:00;37.77;;;35.90;;
11431;SDS011;5772;50.940;6.782;2023-03-18T02:44:27;39.50;;;37.53;;
11431;SDS011;5772;50.940;6.782;2023-03-18T02:46:53;36.23;;;34.30;;
11431;SDS011;5772;50.940;6.782;2023-03-18T02:49:20;40.23;;;37.97;;
11431;SDS011;5772;50.940;6.782;2023-03-18T02:51:46;40.43;;;38.17;;
11431;SDS011;5772;50.940;6.782;2023-03-18T02:54:13;41.33;;;38.60;;
11431;SDS011;5772;50.940;6.782;2023-03-18T02:56:40;44.73;;;42.47;;
11431;SDS011;5772;50.940;6.782;2023-03-18T02:59:07;45.63;;;43.40;;
11431;SDS011;5772;50.940;6.782;2023-03-18T03:01:35;43.00;;;40.60;;
11431;SDS011;5772;50.940;6.782;2023-03-18T03:04:00;42.40;;;39.83;;
11431;SDS011;5772;50.940;6.782;2023-03-18T03:06:26;42.87;;;40.07;;
11431;SDS011;5772;50.940;6.782;2023-03-18T03:08:52;39.23;;;37.17;;
11431;SDS011;5772;50.940;6.782;2023-03-18T03:11:18;38.87;;;36.77;;
11431;SDS011;5772;50.940;6.782;2023-03-18T03:13:43;40.67;;;38.40;;
11431;SDS011;5772;50.940;6.782;2023-03-18T03:16:09;40.80;;;38.77;;
11431;SDS011;5772;50.940;6.782;2023-03-18T03:18:36;38.53;;;36.73;;
11431;SDS011;5772;50.940;6.782;2023-03-18T03:21:01;38.27;;;36.43;;
11431;SDS011;5772;50.940;6.782;2023-03-18T03:23:27;38.83;;;37.00;;
11431;SDS011;5772;50.940;6.782;2023-03-18T03:25:53;38.60;;;36.60;;
11431;SDS011;5772;50.940;6.782;2023-03-18T03:28:18;37.80;;;35.90;;
11431;SDS011;5772;50.940;6.782;2023-03-18T03:30:44;37.13;;;35.33;;
11431;SDS011;5772;50.940;6.782;2023-03-18T03:33:10;35.10;;;33.40;;
11431;SDS011;5772;50.940;6.782;2023-03-18T03:35:37;35.43;;;33.63;;
11431;SDS011;5772;50.940;6.782;2023-03-18T03:38:03;36.00;;;34.40;;
11431;SDS011;5772;50.940;6.782;2023-03-18T03:40:28;37.70;;;35.40;;
11431;SDS011;5772;50.940;6.782;2023-03-18T03:42:54;35.90;;;33.97;;
11431;SDS011;5772;50.940;6.782;2023-03-18T03:45:19;37.93;;;36.17;;
11431;SDS011;5772;50.940;6.782;2023-03-18T03:47:45;41.00;;;39.10;;
11431;SDS011;5772;50.940;6.782;2023-03-18T03:50:10;41.67;;;39.47;;
11431;SDS011;5772;50.940;6.782;2023-03-18T03:52:37;40.53;;;38.37;;
11431;SDS011;5772;50.940;6.782;2023-03-18T03:55:04;40.37;;;38.57;;
11431;SDS011;5772;50.940;6.782;2023-03-18T03:57:32;41.33;;;39.33;;
11431;SDS011;5772;50.940;6.782;2023-03-18T03:59:57;38.37;;;36.60;;
11431;SDS011;5772;50.940;6.782;2023-03-18T04:02:23;40.37;;;38.47;;
11431;SDS011;5772;50.940;6.782;2023-03-18T04:04:48;43.20;;;41.10;;
11431;SDS011;5772;50.940;6.782;2023-03-18T04:07:14;41.10;;;39.07;;
11431;SDS011;5772;50.940;6.782;2023-03-18T04:09:40;40.97;;;38.97;;
11431;SDS011;5772;50.940;6.782;2023-03-18T04:12:06;40.67;;;38.47;;
11431;SDS011;5772;50.940;6.782;2023-03-18T04:14:32;38.97;;;36.90;;
11431;SDS011;5772;50.940;6.782;2023-03-18T04:16:58;38.90;;;37.03;;
11431;SDS011;5772;50.940;6.782;2023-03-18T04:19:23;39.67;;;37.50;;
11431;SDS011;5772;50.940;6.782;2023-03-18T04:21:49;39.67;;;37.77;;
11431;SDS011;5772;50.940;6.782;2023-03-18T04:24:14;40.63;;;38.63;;
11431;SDS011;5772;50.940;6.782;2023-03-18T04:26:41;41.37;;;39.27;;
11431;SDS011;5772;50.940;6.782;2023-03-18T04:29:06;41.90;;;39.90;;
11431;SDS011;5772;50.940;6.782;2023-03-18T04:31:31;43.93;;;41.73;;
11431;SDS011;5772;50.940;6.782;2023-03-18T04:33:57;44.77;;;42.33;;
11431;SDS011;5772;50.940;6.782;2023-03-18T04:36:22;44.07;;;41.90;;
11431;SDS011;5772;50.940;6.782;2023-03-18T04:38:47;44.27;;;42.00;;
11431;SDS011;5772;50.940;6.782;2023-03-18T04:41:13;41.97;;;40.07;;
11431;SDS011;5772;50.940;6.782;2023-03-18T04:43:40;42.60;;;40.50;;
11431;SDS011;5772;50.940;6.782;2023-03-18T04:46:05;41.73;;;39.77;;
11431;SDS011;5772;50.940;6.782;2023-03-18T04:48:30;40.43;;;38.40;;
11431;SDS011;5772;50.940;6.782;2023-03-18T04:50:56;40.27;;;38.33;;
11431;SDS011;5772;50.940;6.782;2023-03-18T04:53:21;39.70;;;37.63;;
11431;SDS011;5772;50.940;6.782;2023-03-18T04:55:47;42.10;;;40.10;;
11431;SDS011;5772;50.940;6.782;2023-03-18T04:58:12;42.00;;;39.97;;
11431;SDS011;5772;50.940;6.782;2023-03-18T05:00:39;40.17;;;38.37;;
11431;SDS011;5772;50.940;6.782;2023-03-18T05:03:05;41.23;;;39.20;;
11431;SDS011;5772;50.940;6.782;2023-03-18T05:05:30;36.53;;;34.83;;
11431;SDS011;5772;50.940;6.782;2023-03-18T05:07:55;36.43;;;34.73;;
11431;SDS011;5772;50.940;6.782;2023-03-18T05:10:21;39.03;;;37.13;;
11431;SDS011;5772;50.940;6.782;2023-03-18T05:12:46;41.53;;;39.63;;
11431;SDS011;5772;50.940;6.782;2023-03-18T05:15:11;35.67;;;34.03;;
11431;SDS011;5772;50.940;6.782;2023-03-18T05:17:38;35.53;;;33.63;;
11431;SDS011;5772;50.940;6.782;2023-03-18T05:20:04;36.37;;;34.60;;
11431;SDS011;5772;50.940;6.782;2023-03-18T05:22:30;35.30;;;33.60;;
11431;SDS011;5772;50.940;6.782;2023-03-18T05:24:55;33.30;;;31.50;;
11431;SDS011;5772;50.940;6.782;2023-03-18T05:27:21;33.53;;;31.93;;
11431;SDS011;5772;50.940;6.782;2023-03-18T05:29:46;33.23;;;31.53;;
11431;SDS011;5772;50.940;6.782;2023-03-18T05:32:12;33.47;;;31.33;;
11431;SDS011;5772;50.940;6.782;2023-03-18T05:34:39;32.47;;;30.73;;
11431;SDS011;5772;50.940;6.782;2023-03-18T05:37:05;33.00;;;31.27;;
11431;SDS011;5772;50.940;6.782;2023-03-18T05:39:32;32.40;;;30.37;;
11431;SDS011;5772;50.940;6.782;2023-03-18T05:41:57;30.67;;;29.27;;
11431;SDS011;5772;50.940;6.782;2023-03-18T05:44:23;31.83;;;30.17;;
11431;SDS011;5772;50.940;6.782;2023-03-18T05:46:49;28.37;;;27.03;;
11431;SDS011;5772;50.940;6.782;2023-03-18T05:49:14;32.27;;;30.67;;
11431;SDS011;5772;50.940;6.782;2023-03-18T05:51:41;33.43;;;31.63;;
11431;SDS011;5772;50.940;6.782;2023-03-18T05:54:06;36.87;;;34.60;;
11431;SDS011;5772;50.940;6.782;2023-03-18T05:56:32;37.80;;;35.80;;
11431;SDS011;5772;50.940;6.782;2023-03-18T05:58:57;37.93;;;36.07;;
11431;SDS011;5772;50.940;6.782;2023-03-18T06:01:23;38.50;;;36.53;;
11431;SDS011;5772;50.940;6.782;2023-03-18T06:03:48;40.40;;;38.20;;
11431;SDS011;5772;50.940;6.782;2023-03-18T06:06:13;40.23;;;37.97;;
11431;SDS011;5772;50.940;6.782;2023-03-18T06:08:40;42.93;;;40.70;;
11431;SDS011;5772;50.940;6.782;2023-03-18T06:11:05;41.93;;;39.93;;
11431;SDS011;5772;50.940;6.782;2023-03-18T06:13:31;40.73;;;38.50;;
11431;SDS011;5772;50.940;6.782;2023-03-18T06:15:56;41.97;;;39.97;;
11431;SDS011;5772;50.940;6.782;2023-03-18T06:18:22;39.37;;;37.37;;
11431;SDS011;5772;50.940;6.782;2023-03-18T06:20:47;34.17;;;32.27;;
11431;SDS011;5772;50.940;6.782;2023-03-18T06:23:12;30.10;;;28.40;;
11431;SDS011;5772;50.940;6.782;2023-03-18T06:25:39;29.47;;;27.90;;
11431;SDS011;5772;50.940;6.782;2023-03-18T06:28:04;38.97;;;37.27;;
11431;SDS011;5772;50.940;6.782;2023-03-18T06:30:30;35.60;;;33.83;;
11431;SDS011;5772;50.940;6.782;2023-03-18T06:32:55;36.63;;;35.00;;
11431;SDS011;5772;50.940;6.782;2023-03-18T06:35:20;33.53;;;31.83;;
11431;SDS011;5772;50.940;6.782;2023-03-18T06:37:46;33.17;;;31.73;;
11431;SDS011;5772;50.940;6.782;2023-03-18T06:40:11;30.40;;;28.73;;
11431;SDS011;5772;50.940;6.782;2023-03-18T06:42:38;24.80;;;23.60;;
11431;SDS011;5772;50.940;6.782;2023-03-18T06:45:04;26.23;;;25.13;;
11431;SDS011;5772;50.940;6.782;2023-03-18T06:47:30;25.23;;;23.93;;
11431;SDS011;5772;50.940;6.782;2023-03-18T06:49:56;24.17;;;23.10;;
11431;SDS011;5772;50.940;6.782;2023-03-18T06:52:21;24.70;;;23.57;;
11431;SDS011;5772;50.940;6.782;2023-03-18T06:54:46;24.27;;;22.97;;
11431;SDS011;5772;50.940;6.782;2023-03-18T06:57:12;23.10;;;21.70;;
11431;SDS011;5772;50.940;6.782;2023-03-18T06:59:38;21.87;;;20.67;;
11431;SDS011;5772;50.940;6.782;2023-03-18T07:02:04;20.47;;;19.50;;
11431;SDS011;5772;50.940;6.782;2023-03-18T07:04:30;20.07;;;18.93;;
11431;SDS011;5772;50.940;6.782;2023-03-18T07:06:55;19.17;;;18.27;;
11431;SDS011;5772;50.940;6.782;2023-03-18T07:09:20;21.67;;;20.47;;
11431;SDS011;5772;50.940;6.782;2023-03-18T07:11:46;20.20;;;19.30;;
11431;SDS011;5772;50.940;6.782;2023-03-18T07:14:11;19.90;;;18.97;;
11431;SDS011;5772;50.940;6.782;2023-03-18T07:16:38;21.00;;;20.00;;
11431;SDS011;5772;50.940;6.782;2023-03-18T07:19:03;22.67;;;21.57;;
11431;SDS011;5772;50.940;6.782;2023-03-18T07:21:28;23.07;;;21.97;;
11431;SDS011;5772;50.940;6.782;2023-03-18T07:23:54;23.90;;;22.70;;
11431;SDS011;5772;50.940;6.782;2023-03-18T07:26:19;25.73;;;24.33;;
11431;SDS011;5772;50.940;6.782;2023-03-18T07:28:45;23.07;;;22.00;;
11431;SDS011;5772;50.940;6.782;2023-03-18T07:31:10;22.13;;;21.13;;
11431;SDS011;5772;50.940;6.782;2023-03-18T07:33:37;23.13;;;22.13;;
11431;SDS011;5772;50.940;6.782;2023-03-18T07:36:02;21.77;;;20.77;;
11431;SDS011;5772;50.940;6.782;2023-03-18T07:38:28;21.17;;;20.17;;
11431;SDS011;5772;50.940;6.782;2023-03-18T07:40:53;23.40;;;22.37;;
11431;SDS011;5772;50.940;6.782;2023-03-18T07:43:18;23.50;;;22.50;;
11431;SDS011;5772;50.940;6.782;2023-03-18T07:45:44;24.63;;;23.53;;
11431;SDS011;5772;50.940;6.782;2023-03-18T07:48:09;21.20;;;20.10;;
11431;SDS011;5772;50.940;6.782;2023-03-18T07:50:36;24.83;;;23.73;;
11431;SDS011;5772;50.940;6.782;2023-03-18T07:53:01;22.73;;;21.60;;
11431;SDS011;5772;50.940;6.782;2023-03-18T07:55:27;19.87;;;18.90;;
11431;SDS011;5772;50.940;6.782;2023-03-18T07:57:52;20.57;;;19.53;;
11431;SDS011;5772;50.940;6.782;2023-03-18T08:00:18;21.52;;;20.27;;
11431;SDS011;5772;50.940;6.782;2023-03-18T08:02:44;21.17;;;20.02;;
11431;SDS011;5772;50.940;6.782;2023-03-18T08:05:09;18.65;;;17.85;;
11431;SDS011;5772;50.940;6.782;2023-03-18T08:07:36;18.58;;;17.70;;
11431;SDS011;5772;50.940;6.782;2023-03-18T08:10:02;18.20;;;17.40;;
11431;SDS011;5772;50.940;6.782;2023-03-18T08:12:27;20.10;;;19.08;;
11431;SDS011;5772;50.940;6.782;2023-03-18T08:14:53;22.70;;;21.70;;
11431;SDS011;5772;50.940;6.782;2023-03-18T08:17:18;20.75;;;19.80;;
11431;SDS011;5772;50.940;6.782;2023-03-18T08:19:44;19.70;;;18.70;;
11431;SDS011;5772;50.940;6.782;2023-03-18T08:22:09;19.30;;;18.40;;
11431;SDS011;5772;50.940;6.782;2023-03-18T08:24:36;20.05;;;19.15;;
11431;SDS011;5772;50.940;6.782;2023-03-18T08:27:02;18.67;;;17.85;;
11431;SDS011;5772;50.940;6.782;2023-03-18T08:29:27;19.23;;;18.33;;
11431;SDS011;5772;50.940;6.782;2023-03-18T08:31:56;18.48;;;17.65;;
11431;SDS011;5772;50.940;6.782;2023-03-18T08:34:21;18.42;;;17.63;;
11431;SDS011;5772;50.940;6.782;2023-03-18T08:36:47;19.02;;;18.02;;
11431;SDS011;5772;50.940;6.782;2023-03-18T08:39:12;18.45;;;17.55;;
11431;SDS011;5772;50.940;6.782;2023-03-18T08:41:39;18.88;;;18.08;;
11431;SDS011;5772;50.940;6.782;2023-03-18T08:44:04;16.30;;;15.60;;
11431;SDS011;5772;50.940;6.782;2023-03-18T08:46:30;17.70;;;16.90;;
11431;SDS011;5772;50.940;6.782;2023-03-18T08:48:55;17.80;;;17.00;;
11431;SDS011;5772;50.940;6.782;2023-03-18T08:51:20;17.80;;;16.88;;
11431;SDS011;5772;50.940;6.782;2023-03-18T08:53:46;18.77;;;17.98;;
11431;SDS011;5772;50.940;6.782;2023-03-18T08:56:11;17.60;;;16.80;;
11431;SDS011;5772;50.940;6.782;2023-03-18T08:58:38;18.45;;;17.52;;
11431;SDS011;5772;50.940;6.782;2023-03-18T09:01:04;17.20;;;16.23;;
11431;SDS011;5772;50.940;6.782;2023-03-18T09:03:29;18.25;;;17.25;;
11431;SDS011;5772;50.940;6.782;2023-03-18T09:05:55;17.60;;;16.80;;
11431;SDS011;5772;50.940;6.782;2023-03-18T09:08:20;18.35;;;17.35;;
11431;SDS011;5772;50.940;6.782;2023-03-18T09:10:46;16.42;;;15.63;;
11431;SDS011;5772;50.940;6.782;2023-03-18T09:13:12;17.60;;;16.77;;
11431;SDS011;5772;50.940;6.782;2023-03-18T09:15:39;17.63;;;16.73;;
11431;SDS011;5772;50.940;6.782;2023-03-18T09:18:05;17.00;;;16.05;;
11431;SDS011;5772;50.940;6.782;2023-03-18T09:20:30;17.90;;;17.10;;
11431;SDS011;5772;50.940;6.782;2023-03-18T09:22:55;17.90;;;17.00;;
11431;SDS011;5772;50.940;6.782;2023-03-18T09:25:21;17.75;;;16.95;;
11431;SDS011;5772;50.940;6.782;2023-03-18T09:27:46;17.90;;;17.10;;
11431;SDS011;5772;50.940;6.782;2023-03-18T09:30:12;15.52;;;14.85;;
11431;SDS011;5772;50.940;6.782;2023-03-18T09:32:39;18.40;;;17.50;;
11431;SDS011;5772;50.940;6.782;2023-03-18T09:35:05;16.10;;;15.35;;
11431;SDS011;5772;50.940;6.782;2023-03-18T09:37:31;15.80;;;15.10;;
11431;SDS011;5772;50.940;6.782;2023-03-18T09:39:56;16.75;;;15.95;;
11431;SDS011;5772;50.940;6.782;2023-03-18T09:42:26;16.27;;;15.57;;
11431;SDS011;5772;50.940;6.782;2023-03-18T09:44:57;14.88;;;14.25;;
11431;SDS011;5772;50.940;6.782;2023-03-18T09:47:34;15.27;;;14.68;;
11431;SDS011;5772;50.940;6.782;2023-03-18T09:50:12;14.57;;;13.73;;
11431;SDS011;5772;50.940;6.782;2023-03-18T09:52:42;14.90;;;14.15;;
11431;SDS011;5772;50.940;6.782;2023-03-18T09:55:11;15.43;;;14.55;;
11431;SDS011;5772;50.940;6.782;2023-03-18T09:57:45;15.38;;;14.68;;
11431;SDS011;5772;50.940;6.782;2023-03-18T10:00:15;16.23;;;15.52;;
11431;SDS011;5772;50.940;6.782;2023-03-18T10:02:45;15.77;;;15.02;;
11431;SDS011;5772;50.940;6.782;2023-03-18T10:05:13;16.85;;;16.05;;
11431;SDS011;5772;50.940;6.782;2023-03-18T10:07:40;15.45;;;14.68;;
11431;SDS011;5772;50.940;6.782;2023-03-18T10:10:07;14.77;;;14.18;;
11431;SDS011;5772;50.940;6.782;2023-03-18T10:12:34;15.40;;;14.80;;
11431;SDS011;5772;50.940;6.782;2023-03-18T10:15:05;14.95;;;14.25;;
11431;SDS011;5772;50.940;6.782;2023-03-18T10:17:37;15.60;;;14.80;;
11431;SDS011;5772;50.940;6.782;2023-03-18T10:20:08;15.50;;;14.63;;
11431;SDS011;5772;50.940;6.782;2023-03-18T10:22:48;16.75;;;15.95;;
11431;SDS011;5772;50.940;6.782;2023-03-18T10:25:20;15.75;;;14.98;;
11431;SDS011;5772;50.940;6.782;2023-03-18T10:27:54;14.88;;;14.20;;
11431;SDS011;5772;50.940;6.782;2023-03-18T10:30:29;15.63;;;14.93;;
11431;SDS011;5772;50.940;6.782;2023-03-18T10:33:02;16.40;;;15.45;;
11431;SDS011;5772;50.940;6.782;2023-03-18T10:35:36;16.73;;;16.02;;
11431;SDS011;5772;50.940;6.782;2023-03-18T10:38:03;17.60;;;16.52;;
11431;SDS011;5772;50.940;6.782;2023-03-18T10:40:31;16.05;;;15.35;;
11431;SDS011;5772;50.940;6.782;2023-03-18T10:42:58;16.83;;;15.93;;
11431;SDS011;5772;50.940;6.782;2023-03-18T10:45:24;15.73;;;15.07;;
11431;SDS011;5772;50.940;6.782;2023-03-18T10:47:55;14.85;;;14.15;;
11431;SDS011;5772;50.940;6.782;2023-03-18T10:50:24;14.93;;;14.32;;
11431;SDS011;5772;50.940;6.782;2023-03-18T10:52:57;15.90;;;15.10;;
11431;SDS011;5772;50.940;6.782;2023-03-18T10:55:27;15.98;;;15.20;;
11431;SDS011;5772;50.940;6.782;2023-03-18T10:57:56;16.15;;;15.35;;
11431;SDS011;5772;50.940;6.782;2023-03-18T11:00:26;16.60;;;15.70;;
11431;SDS011;5772;50.940;6.782;2023-03-18T11:02:52;14.85;;;14.25;;
11431;SDS011;5772;50.940;6.782;2023-03-18T11:05:21;17.42;;;16.60;;
11431;SDS011;5772;50.940;6.782;2023-03-18T11:07:54;17.40;;;16.45;;
11431;SDS011;5772;50.940;6.782;2023-03-18T11:10:23;14.40;;;13.70;;
11431;SDS011;5772;50.940;6.782;2023-03-18T11:12:53;14.95;;;14.35;;
11431;SDS011;5772;50.940;6.782;2023-03-18T11:15:19;16.00;;;15.23;;
11431;SDS011;5772;50.940;6.782;2023-03-18T11:17:45;15.73;;;14.88;;
11431;SDS011;5772;50.940;6.782;2023-03-18T11:20:18;16.20;;;15.43;;
11431;SDS011;5772;50.940;6.782;2023-03-18T11:22:46;15.45;;;14.75;;
11431;SDS011;5772;50.940;6.782;2023-03-18T11:25:13;14.95;;;14.27;;
11431;SDS011;5772;50.940;6.782;2023-03-18T11:27:41;15.63;;;15.02;;
11431;SDS011;5772;50.940;6.782;2023-03-18T11:30:12;15.73;;;15.02;;
11431;SDS011;5772;50.940;6.782;2023-03-18T11:32:49;16.15;;;15.40;;
11431;SDS011;5772;50.940;6.782;2023-03-18T11:35:17;16.65;;;15.63;;
11431;SDS011;5772;50.940;6.782;2023-03-18T11:37:45;16.60;;;15.85;;
11431;SDS011;5772;50.940;6.782;2023-03-18T11:40:22;16.75;;;15.95;;
11431;SDS011;5772;50.940;6.782;2023-03-18T11:42:53;15.00;;;14.40;;
11431;SDS011;5772;50.940;6.782;2023-03-18T11:48:22;15.23;;;14.57;;
11431;SDS011;5772;50.940;6.782;2023-03-18T11:51:05;16.27;;;15.57;;
11431;SDS011;5772;50.940;6.782;2023-03-18T11:53:44;15.65;;;14.95;;
11431;SDS011;5772;50.940;6.782;2023-03-18T11:56:15;15.60;;;14.90;;
11431;SDS011;5772;50.940;6.782;2023-03-18T11:59:00;15.65;;;14.73;;
11431;SDS011;5772;50.940;6.782;2023-03-18T12:01:34;16.25;;;15.63;;
11431;SDS011;5772;50.940;6.782;2023-03-18T12:04:08;17.85;;;16.90;;
11431;SDS011;5772;50.940;6.782;2023-03-18T12:06:39;16.40;;;15.70;;
11431;SDS011;5772;50.940;6.782;2023-03-18T12:09:08;16.35;;;15.65;;
11431;SDS011;5772;50.940;6.782;2023-03-18T12:11:49;16.73;;;15.95;;
11431;SDS011;5772;50.940;6.782;2023-03-18T12:14:25;15.90;;;14.95;;
11431;SDS011;5772;50.940;6.782;2023-03-18T12:16:56;15.75;;;15.02;;
11431;SDS011;5772;50.940;6.782;2023-03-18T12:19:34;16.40;;;15.70;;
11431;SDS011;5772;50.940;6.782;2023-03-18T12:22:12;15.70;;;15.00;;
11431;SDS011;5772;50.940;6.782;2023-03-18T12:25:04;15.48;;;14.88;;
11431;SDS011;5772;50.940;6.782;2023-03-18T12:27:39;16.00;;;15.18;;
11431;SDS011;5772;50.940;6.782;2023-03-18T12:30:22;15.32;;;14.63;;
11431;SDS011;5772;50.940;6.782;2023-03-18T12:33:10;17.83;;;16.63;;
11431;SDS011;5772;50.940;6.782;2023-03-18T12:35:45;16.58;;;15.88;;
11431;SDS011;5772;50.940;6.782;2023-03-18T12:38:25;16.85;;;16.08;;
11431;SDS011;5772;50.940;6.782;2023-03-18T12:41:08;18.00;;;17.20;;
11431;SDS011;5772;50.940;6.782;2023-03-18T12:43:40;17.90;;;16.90;;
11431;SDS011;5772;50.940;6.782;2023-03-18T12:46:17;16.67;;;15.95;;
11431;SDS011;5772;50.940;6.782;2023-03-18T12:48:49;17.27;;;16.48;;
11431;SDS011;5772;50.940;6.782;2023-03-18T12:51:17;15.63;;;14.80;;
11431;SDS011;5772;50.940;6.782;2023-03-18T12:53:45;17.08;;;16.27;;
11431;SDS011;5772;50.940;6.782;2023-03-18T12:56:15;17.90;;;17.00;;
11431;SDS011;5772;50.940;6.782;2023-03-18T12:58:45;17.88;;;17.10;;
11431;SDS011;5772;50.940;6.782;2023-03-18T13:01:14;17.40;;;16.70;;
11431;SDS011;5772;50.940;6.782;2023-03-18T13:03:43;22.30;;;21.33;;
11431;SDS011;5772;50.940;6.782;2023-03-18T13:06:12;19.93;;;19.10;;
11431;SDS011;5772;50.940;6.782;2023-03-18T13:08:42;22.93;;;21.90;;
11431;SDS011;5772;50.940;6.782;2023-03-18T13:11:12;27.43;;;25.80;;
11431;SDS011;5772;50.940;6.782;2023-03-18T13:13:50;23.93;;;22.77;;
11431;SDS011;5772;50.940;6.782;2023-03-18T13:16:19;21.13;;;20.17;;
11431;SDS011;5772;50.940;6.782;2023-03-18T13:18:47;26.40;;;25.30;;
11431;SDS011;5772;50.940;6.782;2023-03-18T13:21:14;21.13;;;20.23;;
11431;SDS011;5772;50.940;6.782;2023-03-18T13:29:22;21.03;;;20.13;;
11431;SDS011;5772;50.940;6.782;2023-03-18T13:31:56;23.73;;;22.37;;
11431;SDS011;5772;50.940;6.782;2023-03-18T13:34:32;22.70;;;21.70;;
11431;SDS011;5772;50.940;6.782;2023-03-18T13:40:31;21.27;;;20.30;;
11431;SDS011;5772;50.940;6.782;2023-03-18T13:43:04;19.93;;;19.07;;
11431;SDS011;5772;50.940;6.782;2023-03-18T13:45:30;28.63;;;27.33;;
11431;SDS011;5772;50.940;6.782;2023-03-18T13:47:58;28.13;;;26.80;;
11431;SDS011;5772;50.940;6.782;2023-03-18T13:50:25;28.37;;;27.17;;
11431;SDS011;5772;50.940;6.782;2023-03-18T13:52:55;26.03;;;24.90;;
11431;SDS011;5772;50.940;6.782;2023-03-18T13:55:25;28.87;;;27.57;;
11431;SDS011;5772;50.940;6.782;2023-03-18T13:57:55;29.43;;;28.23;;
11431;SDS011;5772;50.940;6.782;2023-03-18T14:00:27;26.27;;;25.00;;
11431;SDS011;5772;50.940;6.782;2023-03-18T14:05:45;27.63;;;26.47;;
11431;SDS011;5772;50.940;6.782;2023-03-18T14:17:41;27.87;;;26.50;;
11431;SDS011;5772;50.940;6.782;2023-03-18T14:23:26;27.10;;;25.87;;
11431;SDS011;5772;50.940;6.782;2023-03-18T14:26:00;18.50;;;17.73;;
11431;SDS011;5772;50.940;6.782;2023-03-18T14:28:27;35.97;;;34.53;;
11431;SDS011;5772;50.940;6.782;2023-03-18T14:30:57;20.87;;;20.00;;
11431;SDS011;5772;50.940;6.782;2023-03-18T14:33:49;21.03;;;20.10;;
11431;SDS011;5772;50.940;6.782;2023-03-18T14:36:44;20.27;;;19.17;;
11431;SDS011;5772;50.940;6.782;2023-03-18T14:39:15;19.83;;;18.83;;
11431;SDS011;5772;50.940;6.782;2023-03-18T14:41:43;18.00;;;16.97;;
11431;SDS011;5772;50.940;6.782;2023-03-18T14:44:15;19.37;;;18.57;;
11431;SDS011;5772;50.940;6.782;2023-03-18T14:46:44;21.07;;;20.00;;
11431;SDS011;5772;50.940;6.782;2023-03-18T14:49:24;20.17;;;19.33;;
11431;SDS011;5772;50.940;6.782;2023-03-18T14:51:57;18.50;;;17.67;;
11431;SDS011;5772;50.940;6.782;2023-03-18T14:54:25;18.53;;;17.63;;
11431;SDS011;5772;50.940;6.782;2023-03-18T14:56:51;17.77;;;16.80;;
11431;SDS011;5772;50.940;6.782;2023-03-18T14:59:17;18.57;;;17.67;;
11431;SDS011;5772;50.940;6.782;2023-03-18T15:01:43;19.03;;;18.07;;
11431;SDS011;5772;50.940;6.782;2023-03-18T15:04:12;18.90;;;18.10;;